createdAt,value
2022-11-23T00:01:21.682Z,3.90
2022-11-23T00:03:50.577Z,4.00
2022-11-23T00:06:18.629Z,4.00
2022-11-23T00:08:46.273Z,4.00
2022-11-23T00:11:13.947Z,3.90
2022-11-23T00:13:41.847Z,4.00
2022-11-23T00:16:10.253Z,3.90
2022-11-23T00:18:37.840Z,3.90
2022-11-23T00:21:09.633Z,3.90
2022-11-23T00:23:37.132Z,3.90
2022-11-23T00:26:04.831Z,3.90
2022-11-23T00:28:31.888Z,4.00
2022-11-23T00:30:59.056Z,4.00
2022-11-23T00:33:26.799Z,4.00
2022-11-23T00:36:24.222Z,4.10
2022-11-23T00:38:51.493Z,4.00
2022-11-23T00:41:24.738Z,4.00
2022-11-23T00:43:52.285Z,4.00
2022-11-23T00:46:24.883Z,4.00
2022-11-23T00:48:53.846Z,4.00
2022-11-23T00:51:23.504Z,3.90
2022-11-23T00:53:51.475Z,3.90
2022-11-23T00:56:19.485Z,3.90
2022-11-23T00:58:54.553Z,3.80
2022-11-23T01:01:34.225Z,3.90
2022-11-23T01:04:03.566Z,3.90
2022-11-23T01:06:36.671Z,3.90
2022-11-23T01:09:08.161Z,3.90
2022-11-23T01:11:35.303Z,3.90
2022-11-23T01:14:02.337Z,3.90
2022-11-23T01:16:35.949Z,3.90
2022-11-23T01:19:06.026Z,3.90
2022-11-23T01:21:34.659Z,3.90
2022-11-23T01:24:06.471Z,3.90
2022-11-23T01:26:33.517Z,3.80
2022-11-23T01:29:00.382Z,3.80
2022-11-23T01:31:28.305Z,3.80
2022-11-23T01:33:57.520Z,3.90
2022-11-23T01:36:27.193Z,3.80
2022-11-23T01:38:54.349Z,3.80
2022-11-23T01:41:26.995Z,3.80
2022-11-23T01:43:54.664Z,3.90
2022-11-23T01:46:21.881Z,3.90
2022-11-23T01:49:05.676Z,3.90
2022-11-23T01:51:37.121Z,3.90
2022-11-23T01:54:11.849Z,3.80
2022-11-23T01:56:42.753Z,3.80
2022-11-23T01:59:15.480Z,3.70
2022-11-23T02:01:43.905Z,3.70
2022-11-23T02:04:14.868Z,3.70
2022-11-23T02:06:45.114Z,3.70
2022-11-23T02:09:12.607Z,3.70
2022-11-23T02:11:39.614Z,3.70
2022-11-23T02:14:07.025Z,3.70
2022-11-23T02:16:34.166Z,3.70
2022-11-23T02:19:01.051Z,3.70
2022-11-23T02:21:28.528Z,3.70
2022-11-23T02:24:20.905Z,3.70
2022-11-23T02:26:47.991Z,3.60
2022-11-23T02:29:20.799Z,3.60
2022-11-23T02:31:47.719Z,3.50
2022-11-23T02:34:14.799Z,3.50
2022-11-23T02:36:44.795Z,3.40
2022-11-23T02:39:26.170Z,3.50
2022-11-23T02:41:54.620Z,3.50
2022-11-23T02:44:27.357Z,3.50
2022-11-23T02:46:54.695Z,3.50
2022-11-23T02:49:21.765Z,3.50
2022-11-23T02:51:48.705Z,3.50
2022-11-23T02:54:15.722Z,3.50
2022-11-23T02:56:43.041Z,3.40
2022-11-23T02:59:10.188Z,3.40
2022-11-23T03:01:40.268Z,3.40
2022-11-23T03:04:10.704Z,3.30
2022-11-23T03:06:37.750Z,3.30
2022-11-23T03:09:05.006Z,3.20
2022-11-23T03:11:32.691Z,3.20
2022-11-23T03:13:59.899Z,3.20
2022-11-23T03:16:26.900Z,3.20
2022-11-23T03:18:53.864Z,3.20
2022-11-23T03:21:20.840Z,3.20
2022-11-23T03:23:47.957Z,3.10
2022-11-23T03:26:14.882Z,3.20
2022-11-23T03:28:41.841Z,3.10
2022-11-23T03:31:09.145Z,3.10
2022-11-23T03:33:36.094Z,3.10
2022-11-23T03:36:03.252Z,3.10
2022-11-23T03:38:30.316Z,3.10
2022-11-23T03:40:57.397Z,3.10
2022-11-23T03:43:24.641Z,3.20
2022-11-23T03:45:51.675Z,3.20
2022-11-23T03:48:18.613Z,3.20
2022-11-23T03:50:45.719Z,3.20
2022-11-23T03:53:13.019Z,3.20
2022-11-23T03:55:40.026Z,3.20
2022-11-23T03:58:07.005Z,3.30
2022-11-23T04:00:34.854Z,3.20
2022-11-23T04:03:01.873Z,3.30
2022-11-23T04:05:28.837Z,3.30
2022-11-23T04:07:55.846Z,3.20
2022-11-23T04:10:22.871Z,3.20
2022-11-23T04:12:53.555Z,3.20
2022-11-23T04:15:20.633Z,3.20
2022-11-23T04:17:47.687Z,3.20
2022-11-23T04:20:14.876Z,3.20
2022-11-23T04:22:41.979Z,3.20
2022-11-23T04:25:10.258Z,3.30
2022-11-23T04:27:37.301Z,3.30
2022-11-23T04:30:05.382Z,3.30
2022-11-23T04:32:32.334Z,3.30
2022-11-23T04:34:59.284Z,3.30
2022-11-23T04:37:26.369Z,3.40
2022-11-23T04:39:53.498Z,3.40
2022-11-23T04:42:20.567Z,3.40
2022-11-23T04:44:47.464Z,3.50
2022-11-23T04:47:14.768Z,3.50
2022-11-23T04:49:41.687Z,3.60
2022-11-23T04:52:08.832Z,3.60
2022-11-23T04:54:35.788Z,3.70
2022-11-23T04:57:02.762Z,3.70
2022-11-23T04:59:30.105Z,3.70
2022-11-23T05:01:57.467Z,3.80
2022-11-23T05:04:24.387Z,3.80
2022-11-23T05:06:51.734Z,3.80
2022-11-23T05:09:18.773Z,3.80
2022-11-23T05:11:45.722Z,3.80
2022-11-23T05:14:12.837Z,4.00
2022-11-23T05:16:39.934Z,3.90
2022-11-23T05:19:06.936Z,4.00
2022-11-23T05:21:33.841Z,4.10
2022-11-23T05:24:00.751Z,4.10
2022-11-23T05:26:28.036Z,4.20
2022-11-23T05:28:54.858Z,4.20
2022-11-23T05:31:22.487Z,4.30
2022-11-23T05:33:49.367Z,4.30
2022-11-23T05:36:16.278Z,4.30
2022-11-23T05:38:43.392Z,4.30
2022-11-23T05:41:10.260Z,4.30
2022-11-23T05:43:37.175Z,4.30
2022-11-23T05:46:04.778Z,4.30
2022-11-23T05:48:31.779Z,4.40
2022-11-23T05:51:03.623Z,4.30
2022-11-23T05:53:32.576Z,4.40
2022-11-23T05:56:01.221Z,4.50
2022-11-23T05:58:28.940Z,4.70
2022-11-23T06:00:59.994Z,4.80
2022-11-23T06:03:27.244Z,5.00
2022-11-23T06:05:54.193Z,5.20
2022-11-23T06:08:21.220Z,5.40
2022-11-23T06:10:48.813Z,5.60
2022-11-23T06:13:15.662Z,5.80
2022-11-23T06:15:42.509Z,6.10
2022-11-23T06:18:10.232Z,6.30
2022-11-23T06:20:37.371Z,6.50
2022-11-23T06:23:04.298Z,6.70
2022-11-23T06:25:31.226Z,6.90
2022-11-23T06:28:00.095Z,7.10
2022-11-23T06:30:29.899Z,7.20
2022-11-23T06:32:57.387Z,7.30
2022-11-23T06:35:25.215Z,7.50
2022-11-23T06:37:53.792Z,7.50
2022-11-23T06:40:20.926Z,7.50
2022-11-23T06:42:48.532Z,7.50
2022-11-23T06:45:15.537Z,7.50
2022-11-23T06:47:44.130Z,7.60
2022-11-23T06:50:11.204Z,7.70
2022-11-23T06:52:38.117Z,7.70
2022-11-23T06:55:05.473Z,7.80
2022-11-23T06:57:32.389Z,7.80
2022-11-23T06:59:59.753Z,7.80
2022-11-23T07:02:26.948Z,7.80
2022-11-23T07:04:53.871Z,7.80
2022-11-23T07:07:20.881Z,7.90
2022-11-23T07:09:48.092Z,7.90
2022-11-23T07:12:14.977Z,8.00
2022-11-23T07:14:41.883Z,8.00
2022-11-23T07:17:08.731Z,8.00
2022-11-23T07:19:35.733Z,8.00
2022-11-23T07:22:02.779Z,8.00
2022-11-23T07:24:34.428Z,7.90
2022-11-23T07:27:03.418Z,8.00
2022-11-23T07:29:30.632Z,8.10
2022-11-23T07:31:57.728Z,8.10
2022-11-23T07:34:24.603Z,8.10
2022-11-23T07:36:51.459Z,8.10
2022-11-23T07:39:18.339Z,8.10
2022-11-23T07:41:45.435Z,8.10
2022-11-23T07:44:12.313Z,8.00
2022-11-23T07:46:39.192Z,8.00
2022-11-23T07:49:06.232Z,7.90
2022-11-23T07:51:34.394Z,7.90
2022-11-23T07:54:01.660Z,7.90
2022-11-23T07:56:28.744Z,7.90
2022-11-23T07:58:55.638Z,8.00
2022-11-23T08:01:22.827Z,8.00
2022-11-23T08:03:50.028Z,8.10
2022-11-23T08:06:20.463Z,8.00
2022-11-23T08:08:48.296Z,8.10
2022-11-23T08:11:17.163Z,8.10
2022-11-23T08:13:45.158Z,8.00
2022-11-23T08:16:12.243Z,8.20
2022-11-23T08:18:39.298Z,8.10
2022-11-23T08:21:06.473Z,8.10
2022-11-23T08:23:33.482Z,8.10
2022-11-23T08:26:05.694Z,8.10
2022-11-23T08:28:37.992Z,8.10
2022-11-23T08:31:11.475Z,8.10
2022-11-23T08:33:39.555Z,8.10
2022-11-23T08:36:08.005Z,8.10
2022-11-23T08:38:35.667Z,8.10
2022-11-23T08:41:03.978Z,8.00
2022-11-23T08:43:31.315Z,8.00
2022-11-23T08:46:04.667Z,8.00
2022-11-23T08:48:33.756Z,8.00
2022-11-23T08:51:01.266Z,8.00
2022-11-23T08:53:28.535Z,8.00
2022-11-23T08:55:55.434Z,8.10
2022-11-23T08:58:22.926Z,8.10
2022-11-23T09:00:49.755Z,8.10
2022-11-23T09:03:16.640Z,8.10
2022-11-23T09:05:44.054Z,8.10
2022-11-23T09:08:11.014Z,8.10
2022-11-23T09:10:38.912Z,8.10
2022-11-23T09:13:06.107Z,8.10
2022-11-23T09:15:33.155Z,8.20
2022-11-23T09:18:00.305Z,8.20
2022-11-23T09:20:27.550Z,8.20
2022-11-23T09:22:55.320Z,8.20
2022-11-23T09:25:23.289Z,8.20
2022-11-23T09:27:56.557Z,8.20
2022-11-23T09:30:23.436Z,8.20
2022-11-23T09:32:50.371Z,8.20
2022-11-23T09:35:17.386Z,8.30
2022-11-23T09:37:44.240Z,8.30
2022-11-23T09:40:17.562Z,8.30
2022-11-23T09:42:47.665Z,8.30
2022-11-23T09:45:33.033Z,8.40
2022-11-23T09:48:22.184Z,8.40
2022-11-23T09:50:53.239Z,8.40
2022-11-23T09:53:38.877Z,8.40
2022-11-23T09:56:10.217Z,8.40
2022-11-23T09:58:41.203Z,8.40
2022-11-23T10:01:14.122Z,8.50
2022-11-23T10:03:48.479Z,8.50
2022-11-23T10:06:43.447Z,8.50
2022-11-23T10:09:39.651Z,8.60
2022-11-23T10:12:09.501Z,8.60
2022-11-23T10:14:59.700Z,8.60
2022-11-23T10:17:49.523Z,8.70
2022-11-23T10:20:48.647Z,8.70
2022-11-23T10:23:56.540Z,8.80
2022-11-23T10:26:35.452Z,8.80
2022-11-23T10:29:24.974Z,8.80
2022-11-23T10:31:56.999Z,8.80
2022-11-23T10:34:30.572Z,8.80
2022-11-23T10:36:58.168Z,8.80
2022-11-23T10:39:27.362Z,8.80
2022-11-23T10:42:00.027Z,8.80
2022-11-23T10:44:38.810Z,8.90
2022-11-23T10:47:06.535Z,9.00
2022-11-23T10:49:35.140Z,9.10
2022-11-23T10:52:05.605Z,9.10
2022-11-23T10:54:47.241Z,9.10
2022-11-23T10:57:33.932Z,9.10
2022-11-23T11:00:15.940Z,9.20
2022-11-23T11:02:49.938Z,9.20
2022-11-23T11:08:32.148Z,9.20
2022-11-23T11:11:03.243Z,9.20
2022-11-23T11:13:47.061Z,9.20
2022-11-23T11:16:25.591Z,9.20
2022-11-23T11:18:53.038Z,9.10
2022-11-23T11:21:27.353Z,9.10
2022-11-23T11:24:00.427Z,9.10
2022-11-23T11:26:29.688Z,9.10
2022-11-23T11:29:05.669Z,9.10
2022-11-23T11:32:02.732Z,9.10
2022-11-23T11:34:38.899Z,9.10
2022-11-23T11:37:20.455Z,9.10
2022-11-23T11:39:55.636Z,9.10
2022-11-23T11:42:44.932Z,9.10
2022-11-23T11:45:28.349Z,9.10
2022-11-23T11:48:02.990Z,9.10
2022-11-23T11:50:41.983Z,9.10
2022-11-23T11:53:16.220Z,9.10
2022-11-23T11:56:04.747Z,9.10
2022-11-23T11:58:40.290Z,9.10
2022-11-23T12:01:33.537Z,9.10
2022-11-23T12:04:12.158Z,9.20
2022-11-23T12:07:00.259Z,9.20
2022-11-23T12:09:32.929Z,9.20
2022-11-23T12:12:00.122Z,9.20
2022-11-23T12:14:27.697Z,9.20
2022-11-23T12:17:30.755Z,9.30
2022-11-23T12:19:55.119Z,9.30
2022-11-23T12:22:48.662Z,9.30
2022-11-23T12:25:44.472Z,9.30
2022-11-23T12:28:28.983Z,9.20
2022-11-23T12:31:02.650Z,9.20
2022-11-23T12:34:03.653Z,9.20
2022-11-23T12:37:12.329Z,9.20
2022-11-23T12:40:14.346Z,9.20
2022-11-23T12:42:48.385Z,9.30
2022-11-23T12:45:15.306Z,9.30
2022-11-23T12:47:45.014Z,9.30
2022-11-23T12:50:30.505Z,9.30
2022-11-23T12:53:21.721Z,9.40
2022-11-23T12:56:03.601Z,9.40
2022-11-23T12:58:32.343Z,9.40
2022-11-23T13:01:07.536Z,9.40
2022-11-23T13:04:05.427Z,9.40
2022-11-23T13:07:12.420Z,9.40
2022-11-23T13:09:40.283Z,9.40
2022-11-23T13:12:40.953Z,9.40
2022-11-23T13:15:28.092Z,9.40
2022-11-23T13:18:04.831Z,9.40
2022-11-23T13:21:29.272Z,9.50
2022-11-23T13:23:56.637Z,9.50
2022-11-23T13:26:25.649Z,9.50
2022-11-23T13:28:53.807Z,9.50
2022-11-23T13:31:27.896Z,9.50
2022-11-23T13:34:39.366Z,9.60
2022-11-23T13:37:14.012Z,9.60
2022-11-23T13:39:57.490Z,9.60
2022-11-23T13:42:31.952Z,9.60
2022-11-23T13:45:20.944Z,9.60
2022-11-23T13:48:54.855Z,9.60
2022-11-23T13:51:09.356Z,9.60
2022-11-23T13:53:42.000Z,9.70
2022-11-23T13:56:27.778Z,9.60
2022-11-23T13:59:18.988Z,9.60
2022-11-23T14:02:07.902Z,9.60
2022-11-23T14:04:39.923Z,9.60
2022-11-23T14:07:51.489Z,9.60
2022-11-23T14:10:24.178Z,9.60
2022-11-23T14:12:59.725Z,9.70
2022-11-23T14:15:35.812Z,9.70
2022-11-23T14:18:20.790Z,9.70
2022-11-23T14:21:01.816Z,9.80
2022-11-23T14:23:37.512Z,9.80
2022-11-23T14:26:22.967Z,9.80
2022-11-23T14:29:00.251Z,9.70
2022-11-23T14:31:33.245Z,9.70
2022-11-23T14:34:15.353Z,9.60
2022-11-23T14:36:51.937Z,9.60
2022-11-23T14:39:34.024Z,9.60
2022-11-23T14:42:05.055Z,9.70
2022-11-23T14:44:38.294Z,9.70
2022-11-23T14:47:08.388Z,9.60
2022-11-23T14:49:36.368Z,9.60
2022-11-23T14:52:06.062Z,9.60
2022-11-23T14:54:33.393Z,9.60
2022-11-23T14:57:03.665Z,9.50
2022-11-23T14:59:36.476Z,9.50
2022-11-23T15:02:26.435Z,9.50
2022-11-23T15:05:21.146Z,9.50
2022-11-23T15:08:11.343Z,9.40
2022-11-23T15:10:43.961Z,9.30
2022-11-23T15:13:29.031Z,9.30
2022-11-23T15:15:57.749Z,9.30
2022-11-23T15:18:39.215Z,9.20
2022-11-23T15:21:26.553Z,9.30
2022-11-23T15:23:57.896Z,9.30
2022-11-23T15:26:49.135Z,9.20
2022-11-23T15:29:54.328Z,9.20
2022-11-23T15:32:34.334Z,9.20
2022-11-23T15:35:08.279Z,9.10
2022-11-23T15:37:45.124Z,9.10
2022-11-23T15:40:15.181Z,9.10
2022-11-23T15:42:43.543Z,9.00
2022-11-23T15:45:35.718Z,9.00
2022-11-23T15:48:05.296Z,9.00
2022-11-23T15:50:34.248Z,9.00
2022-11-23T15:53:02.183Z,8.90
2022-11-23T15:55:30.337Z,8.90
2022-11-23T15:57:57.990Z,8.80
2022-11-23T16:00:26.292Z,8.80
2022-11-23T16:02:53.598Z,8.80
2022-11-23T16:05:22.678Z,8.70
2022-11-23T16:08:00.767Z,8.70
2022-11-23T16:10:35.161Z,8.70
2022-11-23T16:13:04.703Z,8.60
2022-11-23T16:15:47.524Z,8.60
2022-11-23T16:18:17.435Z,8.60
2022-11-23T16:20:49.596Z,8.60
2022-11-23T16:23:44.304Z,8.50
2022-11-23T16:26:12.645Z,8.50
2022-11-23T16:28:49.804Z,8.50
2022-11-23T16:31:41.745Z,8.50
2022-11-23T16:34:19.609Z,8.50
2022-11-23T16:36:46.940Z,8.50
2022-11-23T16:39:14.079Z,8.40
2022-11-23T16:41:40.999Z,8.30
2022-11-23T16:44:07.879Z,8.30
2022-11-23T16:46:37.957Z,8.30
2022-11-23T16:49:18.106Z,8.20
2022-11-23T16:51:45.731Z,8.20
2022-11-23T16:54:14.506Z,8.20
2022-11-23T16:56:43.388Z,8.10
2022-11-23T16:59:16.959Z,8.10
2022-11-23T17:01:47.159Z,8.10
2022-11-23T17:04:16.248Z,8.10
2022-11-23T17:06:44.174Z,8.10
2022-11-23T17:09:11.480Z,8.00
2022-11-23T17:11:42.261Z,8.10
2022-11-23T17:14:18.861Z,8.10
2022-11-23T17:16:46.877Z,8.10
2022-11-23T17:19:18.840Z,8.00
2022-11-23T17:21:45.801Z,8.00
2022-11-23T17:24:14.071Z,7.90
2022-11-23T17:26:44.463Z,8.00
2022-11-23T17:29:20.087Z,7.90
2022-11-23T17:31:48.041Z,7.90
2022-11-23T17:34:15.790Z,7.90
2022-11-23T17:36:44.310Z,7.90
2022-11-23T17:39:20.460Z,7.90
2022-11-23T17:41:48.223Z,7.90
2022-11-23T17:44:16.085Z,7.90
2022-11-23T17:46:44.058Z,7.90
2022-11-23T17:49:17.051Z,7.90
2022-11-23T17:51:44.149Z,7.90
2022-11-23T17:54:11.344Z,7.80
2022-11-23T17:56:39.041Z,7.90
2022-11-23T17:59:08.815Z,7.80
2022-11-23T18:01:35.787Z,7.80
2022-11-23T18:04:04.655Z,7.80
2022-11-23T18:06:31.785Z,7.80
2022-11-23T18:08:58.716Z,7.90
2022-11-23T18:11:25.828Z,7.80
2022-11-23T18:13:52.758Z,7.80
2022-11-23T18:16:21.188Z,7.70
2022-11-23T18:18:49.083Z,7.70
2022-11-23T18:21:16.003Z,7.60
2022-11-23T18:23:43.188Z,7.60
2022-11-23T18:26:15.495Z,7.60
2022-11-23T18:28:42.415Z,7.60
2022-11-23T18:31:09.344Z,7.60
2022-11-23T18:33:36.799Z,7.50
2022-11-23T18:36:05.776Z,7.50
2022-11-23T18:38:34.146Z,7.40
2022-11-23T18:41:01.181Z,7.50
2022-11-23T18:43:28.373Z,7.50
2022-11-23T18:45:55.514Z,7.50
2022-11-23T18:48:22.427Z,7.60
2022-11-23T18:50:49.646Z,7.50
2022-11-23T18:53:17.410Z,7.60
2022-11-23T18:55:44.280Z,7.70
2022-11-23T18:58:11.229Z,7.70
2022-11-23T19:00:38.151Z,7.60
2022-11-23T19:03:05.192Z,7.60
2022-11-23T19:05:34.852Z,7.70
2022-11-23T19:08:04.300Z,7.60
2022-11-23T19:10:33.348Z,7.60
2022-11-23T19:13:05.157Z,7.50
2022-11-23T19:15:33.217Z,7.40
2022-11-23T19:18:00.582Z,7.40
2022-11-23T19:20:28.761Z,7.30
2022-11-23T19:22:56.286Z,7.30
2022-11-23T19:25:23.187Z,7.30
2022-11-23T19:27:51.552Z,7.30
2022-11-23T19:30:19.158Z,7.30
2022-11-23T19:32:46.042Z,7.30
2022-11-23T19:35:13.372Z,7.30
2022-11-23T19:37:40.526Z,7.30
2022-11-23T19:40:08.304Z,7.40
2022-11-23T19:42:36.122Z,7.40
2022-11-23T19:45:04.040Z,7.40
2022-11-23T19:47:31.692Z,7.40
2022-11-23T19:49:59.240Z,7.40
2022-11-23T19:52:48.004Z,7.40
2022-11-23T19:55:15.375Z,7.40
2022-11-23T19:57:42.325Z,7.60
2022-11-23T20:00:09.862Z,7.60
2022-11-23T20:02:37.488Z,7.80
2022-11-23T20:05:04.860Z,7.80
2022-11-23T20:07:32.096Z,7.90
2022-11-23T20:09:59.002Z,7.90
2022-11-23T20:12:25.878Z,7.80
2022-11-23T20:14:53.269Z,7.90
2022-11-23T20:17:20.138Z,7.90
2022-11-23T20:19:48.435Z,7.80
2022-11-23T20:22:15.433Z,7.90
2022-11-23T20:24:42.341Z,7.90
2022-11-23T20:27:09.320Z,7.90
2022-11-23T20:29:38.772Z,7.90
2022-11-23T20:32:05.694Z,8.00
2022-11-23T20:34:32.779Z,8.20
2022-11-23T20:37:00.349Z,8.20
2022-11-23T20:39:27.885Z,8.20
2022-11-23T20:41:54.818Z,8.20
2022-11-23T20:44:21.711Z,8.20
2022-11-23T20:47:04.817Z,8.30
2022-11-23T20:49:32.156Z,8.30
2022-11-23T20:52:00.190Z,8.30
2022-11-23T20:54:27.175Z,8.40
2022-11-23T20:56:54.135Z,8.50
2022-11-23T20:59:21.137Z,8.50
2022-11-23T21:01:48.527Z,8.60
2022-11-23T21:04:15.461Z,8.50
2022-11-23T21:06:42.462Z,8.50
2022-11-23T21:09:11.300Z,8.40
2022-11-23T21:11:57.186Z,8.40
2022-11-23T21:14:28.139Z,8.40
2022-11-23T21:16:58.622Z,8.40
2022-11-23T21:19:37.622Z,8.40
2022-11-23T21:22:07.389Z,8.40
2022-11-23T21:24:37.506Z,8.40
2022-11-23T21:27:06.787Z,8.40
2022-11-23T21:29:34.164Z,8.40
2022-11-23T21:32:03.868Z,8.40
2022-11-23T21:34:31.133Z,8.30
2022-11-23T21:36:58.427Z,8.30
2022-11-23T21:39:25.435Z,8.30
2022-11-23T21:41:54.018Z,8.30
2022-11-23T21:44:22.940Z,8.30
2022-11-23T21:46:50.242Z,8.30
2022-11-23T21:49:17.352Z,8.30
2022-11-23T21:51:45.704Z,8.20
2022-11-23T21:54:16.494Z,8.20
2022-11-23T21:56:45.957Z,8.10
2022-11-23T21:59:13.700Z,8.10
2022-11-23T22:01:41.028Z,8.10
2022-11-23T22:04:11.699Z,8.10
2022-11-23T22:06:39.711Z,8.10
2022-11-23T22:09:09.948Z,8.10
2022-11-23T22:11:41.098Z,8.10
2022-11-23T22:14:12.508Z,8.10
2022-11-23T22:16:43.142Z,8.10
2022-11-23T22:19:13.704Z,8.10
2022-11-23T22:21:42.162Z,8.10
2022-11-23T22:24:18.165Z,8.10
2022-11-23T22:26:45.922Z,8.20
2022-11-23T22:29:13.058Z,8.10
2022-11-23T22:31:40.635Z,8.10
2022-11-23T22:34:10.422Z,8.20
2022-11-23T22:36:39.161Z,8.10
2022-11-23T22:39:07.261Z,8.10
2022-11-23T22:41:37.225Z,8.10
2022-11-23T22:44:06.537Z,8.10
2022-11-23T22:46:34.206Z,8.10
2022-11-23T22:49:02.030Z,8.20
2022-11-23T22:51:30.223Z,8.10
2022-11-23T22:53:59.299Z,8.10
2022-11-23T22:56:27.161Z,8.20
2022-11-23T22:58:54.078Z,8.30
2022-11-23T23:01:27.790Z,8.30
2022-11-23T23:03:56.345Z,8.40
2022-11-23T23:06:25.917Z,8.40
2022-11-23T23:08:56.123Z,8.40
2022-11-23T23:11:24.188Z,8.40
2022-11-23T23:13:51.781Z,8.40
2022-11-23T23:16:18.947Z,8.40
2022-11-23T23:18:46.335Z,8.30
2022-11-23T23:21:16.280Z,8.30
2022-11-23T23:23:47.068Z,8.30
2022-11-23T23:26:16.182Z,8.30
2022-11-23T23:28:43.952Z,8.30
2022-11-23T23:31:13.976Z,8.20
2022-11-23T23:33:41.626Z,8.30
2022-11-23T23:36:21.115Z,8.30
2022-11-23T23:38:48.809Z,8.30
2022-11-23T23:41:16.219Z,8.30
2022-11-23T23:43:43.730Z,8.30
2022-11-23T23:46:12.433Z,8.20
2022-11-23T23:48:40.892Z,8.30
2022-11-23T23:51:19.807Z,8.20
2022-11-23T23:53:47.395Z,8.10
2022-11-23T23:56:23.383Z,8.10
2022-11-23T23:58:50.586Z,8.00
